createdAt,value
2022-12-05T00:01:49.408Z,68.03
2022-12-05T00:04:16.805Z,72.65
2022-12-05T00:06:44.721Z,62.13
2022-12-05T00:09:13.235Z,68.88
2022-12-05T00:11:43.359Z,59.67
2022-12-05T00:14:12.000Z,61.58
2022-12-05T00:16:41.055Z,59.33
2022-12-05T00:19:10.968Z,62.65
2022-12-05T00:21:38.433Z,63.42
2022-12-05T00:24:08.111Z,60.45
2022-12-05T00:26:36.072Z,73.45
2022-12-05T00:29:03.408Z,67.28
2022-12-05T00:31:30.331Z,58.05
2022-12-05T00:34:01.150Z,64.38
2022-12-05T00:36:30.790Z,66.70
2022-12-05T00:39:01.690Z,68.00
2022-12-05T00:41:29.399Z,66.40
2022-12-05T00:44:00.151Z,79.43
2022-12-05T00:46:28.658Z,68.07
2022-12-05T00:48:58.138Z,68.78
2022-12-05T00:51:31.081Z,75.43
2022-12-05T00:54:00.248Z,67.05
2022-12-05T00:56:28.656Z,69.00
2022-12-05T00:58:57.137Z,78.00
2022-12-05T01:01:27.278Z,85.15
2022-12-05T01:03:56.100Z,76.63
2022-12-05T01:06:24.418Z,68.65
2022-12-05T01:08:53.652Z,76.65
2022-12-05T01:11:21.047Z,78.35
2022-12-05T01:13:47.891Z,89.00
2022-12-05T01:16:24.138Z,74.75
2022-12-05T01:18:53.093Z,76.90
2022-12-05T01:21:20.849Z,82.45
2022-12-05T01:23:48.638Z,88.07
2022-12-05T01:26:17.846Z,82.18
2022-12-05T01:28:45.331Z,78.75
2022-12-05T01:31:23.483Z,84.07
2022-12-05T01:33:50.573Z,76.55
2022-12-05T01:36:18.252Z,86.03
2022-12-05T01:38:45.704Z,88.75
2022-12-05T01:41:19.537Z,83.80
2022-12-05T01:44:05.272Z,92.18
2022-12-05T01:46:37.213Z,88.47
2022-12-05T01:49:11.207Z,88.35
2022-12-05T01:51:41.273Z,82.22
2022-12-05T01:54:12.834Z,84.25
2022-12-05T01:56:42.880Z,85.28
2022-12-05T01:59:11.797Z,77.65
2022-12-05T02:01:39.553Z,69.15
2022-12-05T02:04:07.388Z,61.45
2022-12-05T02:06:34.509Z,70.50
2022-12-05T02:09:01.738Z,66.47
2022-12-05T02:11:32.092Z,66.28
2022-12-05T02:14:13.693Z,75.32
2022-12-05T02:16:47.812Z,64.00
2022-12-05T02:19:45.923Z,74.25
2022-12-05T02:22:35.411Z,66.80
2022-12-05T02:25:12.292Z,67.10
2022-12-05T02:27:51.223Z,68.78
2022-12-05T02:30:20.147Z,69.85
2022-12-05T02:33:11.686Z,71.97
2022-12-05T02:36:04.780Z,64.47
2022-12-05T02:38:44.542Z,61.83
2022-12-05T02:41:14.410Z,60.08
2022-12-05T02:44:10.979Z,73.70
2022-12-05T02:46:40.563Z,68.10
2022-12-05T02:49:31.463Z,69.22
2022-12-05T02:52:01.255Z,68.47
2022-12-05T02:54:33.138Z,63.42
2022-12-05T02:57:01.313Z,66.90
2022-12-05T02:59:28.945Z,71.03
2022-12-05T03:01:56.089Z,72.68
2022-12-05T03:04:25.313Z,67.97
2022-12-05T03:07:06.758Z,61.40
2022-12-05T03:22:59.120Z,69.28
2022-12-05T03:25:35.530Z,65.47
2022-12-05T03:28:26.210Z,53.88
2022-12-05T03:30:59.160Z,59.80
2022-12-05T03:33:35.101Z,56.80
2022-12-05T03:36:12.508Z,68.05
2022-12-05T03:39:00.419Z,61.85
2022-12-05T03:41:38.414Z,65.55
2022-12-05T03:44:19.034Z,63.13
2022-12-05T03:46:53.203Z,61.30
2022-12-05T03:49:40.644Z,62.20
2022-12-05T03:52:27.865Z,54.75
2022-12-05T03:55:04.309Z,59.97
2022-12-05T03:57:40.769Z,47.58
2022-12-05T04:00:11.345Z,55.95
2022-12-05T04:02:48.796Z,59.65
2022-12-05T04:05:52.016Z,53.42
2022-12-05T04:08:27.814Z,52.60
2022-12-05T04:10:58.694Z,55.05
2022-12-05T04:14:05.028Z,46.65
2022-12-05T04:17:14.597Z,59.13
2022-12-05T04:34:37.216Z,49.13
2022-12-05T04:37:34.927Z,47.65
2022-12-05T04:41:17.594Z,48.88
2022-12-05T04:57:01.143Z,53.35
2022-12-05T04:59:43.023Z,50.30
2022-12-05T05:03:05.315Z,48.05
2022-12-05T05:06:01.853Z,46.30
2022-12-05T05:08:29.484Z,47.90
2022-12-05T05:11:08.688Z,50.28
2022-12-05T05:13:35.582Z,42.00
2022-12-05T05:16:02.684Z,46.50
2022-12-05T05:18:29.552Z,46.08
2022-12-05T05:20:56.654Z,50.47
2022-12-05T05:23:23.527Z,47.17
2022-12-05T05:25:55.552Z,42.30
2022-12-05T05:28:23.290Z,53.75
2022-12-05T05:30:50.126Z,47.53
2022-12-05T05:33:17.388Z,40.85
2022-12-05T05:35:44.651Z,54.83
2022-12-05T05:38:11.410Z,46.78
2022-12-05T05:40:43.467Z,40.17
2022-12-05T05:43:10.199Z,45.47
2022-12-05T05:45:37.780Z,45.42
2022-12-05T05:48:05.994Z,45.10
2022-12-05T05:50:33.597Z,38.45
2022-12-05T05:53:00.713Z,50.22
2022-12-05T05:55:36.352Z,44.50
2022-12-05T05:58:03.557Z,45.67
2022-12-05T06:00:30.329Z,42.65
2022-12-05T06:02:59.400Z,50.63
2022-12-05T06:05:26.839Z,50.75
2022-12-05T06:07:53.890Z,42.25
2022-12-05T06:10:20.707Z,48.20
2022-12-05T06:12:47.515Z,49.08
2022-12-05T06:15:14.319Z,46.42
2022-12-05T06:17:41.391Z,47.70
2022-12-05T06:20:08.747Z,47.28
2022-12-05T06:22:36.235Z,44.90
2022-12-05T06:25:03.595Z,47.55
2022-12-05T06:27:32.203Z,52.13
2022-12-05T06:29:59.778Z,38.13
2022-12-05T06:32:29.070Z,45.30
2022-12-05T06:34:55.932Z,44.75
2022-12-05T06:37:23.224Z,42.95
2022-12-05T06:39:52.585Z,46.83
2022-12-05T06:42:19.960Z,46.78
2022-12-05T06:44:46.718Z,43.00
2022-12-05T06:47:13.925Z,49.33
2022-12-05T06:49:40.727Z,53.65
2022-12-05T06:52:07.953Z,46.03
2022-12-05T06:54:34.887Z,44.90
2022-12-05T06:57:02.302Z,38.72
2022-12-05T06:59:29.264Z,50.67
2022-12-05T07:01:56.558Z,50.42
2022-12-05T07:04:24.625Z,45.70
2022-12-05T07:06:53.394Z,43.95
2022-12-05T07:09:23.355Z,52.58
2022-12-05T07:11:51.141Z,46.65
2022-12-05T07:14:45.963Z,46.88
2022-12-05T07:17:05.975Z,54.47
2022-12-05T07:19:33.196Z,43.65
2022-12-05T07:22:00.268Z,44.17
2022-12-05T07:24:28.317Z,52.42
2022-12-05T07:26:55.623Z,43.40
2022-12-05T07:29:23.412Z,48.13
2022-12-05T07:31:50.724Z,53.75
2022-12-05T07:34:17.574Z,47.10
2022-12-05T07:36:44.760Z,48.55
2022-12-05T07:39:11.543Z,48.45
2022-12-05T07:41:38.388Z,50.58
2022-12-05T07:44:05.868Z,48.40
2022-12-05T07:46:32.696Z,43.03
2022-12-05T07:48:59.910Z,46.40
2022-12-05T07:51:27.147Z,52.55
2022-12-05T07:53:59.591Z,45.88
2022-12-05T07:56:28.737Z,47.30
2022-12-05T07:58:55.563Z,47.88
2022-12-05T08:01:27.872Z,40.63
2022-12-05T08:03:56.573Z,47.80
2022-12-05T08:06:29.937Z,37.08
2022-12-05T08:08:57.932Z,47.00
2022-12-05T08:11:31.505Z,48.22
2022-12-05T08:13:58.949Z,43.40
2022-12-05T08:16:29.178Z,35.78
2022-12-05T08:18:57.826Z,40.25
2022-12-05T08:21:27.891Z,41.63
2022-12-05T08:23:55.217Z,41.15
2022-12-05T08:26:31.524Z,41.63
2022-12-05T08:29:02.063Z,40.55
2022-12-05T08:31:33.875Z,43.28
2022-12-05T08:34:01.203Z,37.78
2022-12-05T08:36:30.284Z,46.08
2022-12-05T08:38:59.066Z,53.72
2022-12-05T08:41:28.823Z,54.63
2022-12-05T08:44:03.050Z,39.63
2022-12-05T08:46:35.120Z,41.90
2022-12-05T08:49:06.231Z,40.40
2022-12-05T08:51:33.566Z,46.00
2022-12-05T08:54:05.630Z,48.38
2022-12-05T08:56:36.201Z,46.10
2022-12-05T08:59:05.984Z,43.92
2022-12-05T09:01:39.698Z,49.17
2022-12-05T09:04:08.179Z,45.90
2022-12-05T09:06:35.820Z,52.90
2022-12-05T09:09:07.117Z,38.90
2022-12-05T09:11:38.061Z,44.13
2022-12-05T09:14:05.425Z,53.65
2022-12-05T09:16:38.027Z,49.22
2022-12-05T09:19:11.233Z,52.55
2022-12-05T09:21:38.143Z,53.28
2022-12-05T09:24:05.394Z,53.20
2022-12-05T09:26:32.257Z,51.03
2022-12-05T09:28:59.193Z,54.47
2022-12-05T09:31:28.393Z,54.28
2022-12-05T09:33:55.912Z,55.95
2022-12-05T09:36:25.693Z,54.58
2022-12-05T09:38:53.946Z,59.10
2022-12-05T09:41:44.122Z,63.25
2022-12-05T09:44:32.959Z,65.97
2022-12-05T09:47:05.281Z,54.25
2022-12-05T09:49:34.770Z,54.72
2022-12-05T09:52:03.654Z,58.60
2022-12-05T09:54:32.545Z,60.78
2022-12-05T09:57:00.613Z,64.60
2022-12-05T09:59:27.579Z,68.15
2022-12-05T10:02:17.422Z,64.38
2022-12-05T10:04:47.137Z,52.78
2022-12-05T10:07:37.277Z,76.95
2022-12-05T10:10:34.687Z,55.10
2022-12-05T10:13:20.655Z,56.95
2022-12-05T10:15:57.617Z,62.70
2022-12-05T10:18:30.078Z,58.75
2022-12-05T10:21:02.773Z,63.63
2022-12-05T10:23:57.583Z,63.65
2022-12-05T10:26:44.584Z,60.55
2022-12-05T10:29:23.501Z,59.08
2022-12-05T10:31:53.563Z,62.17
2022-12-05T10:34:37.710Z,63.25
2022-12-05T10:37:17.335Z,59.25
2022-12-05T10:39:45.536Z,56.25
2022-12-05T10:42:35.410Z,62.58
2022-12-05T10:45:08.743Z,63.45
2022-12-05T10:47:36.596Z,63.75
2022-12-05T10:50:32.313Z,62.20
2022-12-05T10:53:03.101Z,73.00
2022-12-05T10:56:00.012Z,62.05
2022-12-05T10:58:31.773Z,54.00
2022-12-05T11:01:08.346Z,54.72
2022-12-05T11:03:43.002Z,56.63
2022-12-05T11:06:26.471Z,46.25
2022-12-05T11:09:04.767Z,50.95
2022-12-05T11:11:34.170Z,56.42
2022-12-05T11:14:07.512Z,54.72
2022-12-05T11:16:39.172Z,41.75
2022-12-05T11:19:26.247Z,59.83
2022-12-05T11:21:53.925Z,54.10
2022-12-05T11:24:23.385Z,50.30
2022-12-05T11:26:51.201Z,66.22
2022-12-05T11:29:36.765Z,56.10
2022-12-05T11:32:19.195Z,47.53
2022-12-05T11:35:06.209Z,54.92
2022-12-05T11:37:47.761Z,49.47
2022-12-05T11:40:28.853Z,50.42
2022-12-05T11:43:15.927Z,47.85
2022-12-05T11:46:07.259Z,43.45
2022-12-05T11:48:46.182Z,62.53
2022-12-05T11:51:41.210Z,54.63
2022-12-05T11:57:59.003Z,57.05
2022-12-05T12:00:57.189Z,56.63
2022-12-05T12:03:44.977Z,63.38
2022-12-05T12:06:33.616Z,74.85
2022-12-05T12:09:32.242Z,61.88
2022-12-05T12:12:32.581Z,60.45
2022-12-05T12:15:22.431Z,75.03
2022-12-05T12:18:19.572Z,67.57
2022-12-05T12:20:58.984Z,75.75
2022-12-05T12:23:25.748Z,63.78
2022-12-05T12:26:04.575Z,60.22
2022-12-05T12:28:58.241Z,54.88
2022-12-05T12:31:50.322Z,55.35
2022-12-05T12:34:38.923Z,59.55
2022-12-05T12:37:33.102Z,69.05
2022-12-05T12:40:21.809Z,56.45
2022-12-05T12:43:30.848Z,61.97
2022-12-05T12:46:25.815Z,64.38
2022-12-05T12:48:55.619Z,61.17
2022-12-05T12:51:26.778Z,58.33
2022-12-05T12:54:07.243Z,55.70
2022-12-05T12:56:52.608Z,61.22
2022-12-05T12:59:39.044Z,57.05
2022-12-05T13:02:13.706Z,58.08
2022-12-05T13:05:04.271Z,87.50
2022-12-05T13:07:48.465Z,54.65
2022-12-05T13:10:29.397Z,47.80
2022-12-05T13:13:00.098Z,55.00
2022-12-05T13:15:41.831Z,51.40
2022-12-05T13:18:19.265Z,55.05
2022-12-05T13:20:50.938Z,56.25
2022-12-05T13:23:23.404Z,57.95
2022-12-05T13:25:53.706Z,49.60
2022-12-05T13:28:42.235Z,57.88
2022-12-05T13:31:14.772Z,52.47
2022-12-05T13:33:48.753Z,58.72
2022-12-05T13:36:39.462Z,53.53
2022-12-05T13:39:41.215Z,65.30
2022-12-05T13:42:30.030Z,54.90
2022-12-05T13:45:09.653Z,64.28
2022-12-05T13:47:59.612Z,57.65
2022-12-05T13:50:35.171Z,56.05
2022-12-05T13:53:19.609Z,63.47
2022-12-05T13:56:00.379Z,56.88
2022-12-05T13:58:41.055Z,59.38
2022-12-05T14:01:27.125Z,49.28
2022-12-05T14:04:02.521Z,57.47
2022-12-05T14:06:35.981Z,69.43
2022-12-05T14:09:03.517Z,76.03
2022-12-05T14:11:30.515Z,61.72
2022-12-05T14:14:04.104Z,56.70
2022-12-05T14:16:34.030Z,59.63
2022-12-05T14:19:31.157Z,62.45
2022-12-05T14:22:13.445Z,52.50
2022-12-05T14:25:06.702Z,55.42
2022-12-05T14:28:00.276Z,57.53
2022-12-05T14:30:45.676Z,63.00
2022-12-05T14:33:23.597Z,57.35
2022-12-05T14:35:54.413Z,69.90
2022-12-05T14:38:32.784Z,61.05
2022-12-05T14:41:24.474Z,67.70
2022-12-05T14:43:52.523Z,66.30
2022-12-05T14:46:27.378Z,58.13
2022-12-05T14:48:56.144Z,71.15
2022-12-05T14:51:31.817Z,63.85
2022-12-05T14:54:14.670Z,65.18
2022-12-05T14:56:48.879Z,59.85
2022-12-05T14:59:54.389Z,83.20
2022-12-05T15:02:32.678Z,62.85
2022-12-05T15:05:18.346Z,61.40
2022-12-05T15:07:48.324Z,59.45
2022-12-05T15:10:35.584Z,66.40
2022-12-05T15:13:20.869Z,67.47
2022-12-05T15:16:08.172Z,67.00
2022-12-05T15:18:40.166Z,68.45
2022-12-05T15:21:29.456Z,69.70
2022-12-05T15:23:58.951Z,59.10
2022-12-05T15:26:48.450Z,51.78
2022-12-05T15:29:23.640Z,59.35
2022-12-05T15:31:53.195Z,58.50
2022-12-05T15:34:29.792Z,60.45
2022-12-05T15:37:23.756Z,61.95
2022-12-05T15:39:52.049Z,52.67
2022-12-05T15:42:22.442Z,58.65
2022-12-05T15:44:51.842Z,61.30
2022-12-05T15:47:26.287Z,62.22
2022-12-05T15:49:53.147Z,63.67
2022-12-05T15:52:25.842Z,66.90
2022-12-05T15:54:54.393Z,49.97
2022-12-05T15:57:59.121Z,61.08
2022-12-05T16:00:26.741Z,58.55
2022-12-05T16:03:18.628Z,62.20
2022-12-05T16:05:52.347Z,58.83
2022-12-05T16:08:20.047Z,62.42
2022-12-05T16:10:48.588Z,53.17
2022-12-05T16:13:17.832Z,60.90
2022-12-05T16:15:52.873Z,67.25
2022-12-05T16:18:24.770Z,51.80
2022-12-05T16:20:53.017Z,56.45
2022-12-05T16:23:30.282Z,64.63
2022-12-05T16:26:19.845Z,60.75
2022-12-05T16:29:02.651Z,50.30
2022-12-05T16:31:31.093Z,45.88
2022-12-05T16:34:06.850Z,54.88
2022-12-05T16:36:35.104Z,62.63
2022-12-05T16:39:04.696Z,61.30
2022-12-05T16:41:39.780Z,60.97
2022-12-05T16:44:57.508Z,56.67
2022-12-05T16:47:45.173Z,58.80
2022-12-05T16:50:31.194Z,55.03
2022-12-05T16:53:04.263Z,57.83
2022-12-05T16:55:37.327Z,52.92
2022-12-05T16:58:05.384Z,55.45
2022-12-05T17:00:33.682Z,57.03
2022-12-05T17:03:25.887Z,55.17
2022-12-05T17:05:47.691Z,60.00
2022-12-05T17:08:15.482Z,54.75
2022-12-05T17:10:43.160Z,53.13
2022-12-05T17:13:14.865Z,57.72
2022-12-05T17:15:42.516Z,51.05
2022-12-05T17:18:21.411Z,45.78
2022-12-05T17:20:57.891Z,55.30
2022-12-05T17:23:25.508Z,56.05
2022-12-05T17:25:57.008Z,50.40
2022-12-05T17:28:24.361Z,56.53
2022-12-05T17:30:53.238Z,52.85
2022-12-05T17:33:24.382Z,49.03
2022-12-05T17:35:52.335Z,52.17
2022-12-05T17:38:21.419Z,53.75
2022-12-05T17:40:53.000Z,50.65
2022-12-05T17:43:24.987Z,49.58
2022-12-05T17:45:57.563Z,53.47
2022-12-05T17:48:27.411Z,51.15
2022-12-05T17:50:58.169Z,48.20
2022-12-05T17:53:25.687Z,60.90
2022-12-05T17:55:53.049Z,52.40
2022-12-05T17:58:19.951Z,52.13
2022-12-05T18:00:47.486Z,49.03
2022-12-05T18:03:17.071Z,47.08
2022-12-05T18:05:44.719Z,50.70
2022-12-05T18:08:12.387Z,39.70
2022-12-05T18:10:44.977Z,41.55
2022-12-05T18:13:12.518Z,44.85
2022-12-05T18:15:43.096Z,46.65
2022-12-05T18:18:17.525Z,43.45
2022-12-05T18:20:45.082Z,45.25
2022-12-05T18:23:12.818Z,47.65
2022-12-05T18:25:41.043Z,47.05
2022-12-05T18:28:08.620Z,40.78
2022-12-05T18:30:35.486Z,46.30
2022-12-05T18:33:02.805Z,44.20
2022-12-05T18:35:42.093Z,40.33
2022-12-05T18:38:13.484Z,47.72
2022-12-05T18:40:40.365Z,41.65
2022-12-05T18:43:07.142Z,46.67
2022-12-05T18:45:34.417Z,46.40
2022-12-05T18:48:22.974Z,42.65
2022-12-05T18:50:48.645Z,41.58
2022-12-05T18:53:18.414Z,48.72
2022-12-05T18:58:36.969Z,48.80
2022-12-05T19:01:10.821Z,42.85
2022-12-05T19:03:41.385Z,45.80
2022-12-05T19:06:18.820Z,42.28
2022-12-05T19:08:46.260Z,50.58
2022-12-05T19:11:15.146Z,49.75
2022-12-05T19:13:42.525Z,47.88
2022-12-05T19:16:19.397Z,49.58
2022-12-05T19:18:52.382Z,47.30
2022-12-05T19:21:19.209Z,52.45
2022-12-05T19:23:48.565Z,53.85
2022-12-05T19:26:15.465Z,42.90
2022-12-05T19:28:42.305Z,53.25
2022-12-05T19:31:11.362Z,44.85
2022-12-05T19:33:43.220Z,50.95
2022-12-05T19:36:14.184Z,53.42
2022-12-05T19:38:43.805Z,64.22
2022-12-05T19:41:24.257Z,46.30
2022-12-05T19:43:52.068Z,49.75
2022-12-05T19:46:25.615Z,53.75
2022-12-05T19:48:55.024Z,67.00
2022-12-05T19:51:23.407Z,53.53
2022-12-05T19:53:50.556Z,55.67
2022-12-05T19:56:23.844Z,50.75
2022-12-05T19:58:52.712Z,47.35
2022-12-05T20:01:26.117Z,45.95
2022-12-05T20:03:57.995Z,50.88
2022-12-05T20:06:30.914Z,50.38
2022-12-05T20:08:59.716Z,53.20
2022-12-05T20:11:28.158Z,50.85
2022-12-05T20:13:57.226Z,42.70
2022-12-05T20:16:27.705Z,42.05
2022-12-05T20:18:58.210Z,42.63
2022-12-05T20:21:26.779Z,42.40
2022-12-05T20:23:54.667Z,48.65
2022-12-05T20:26:28.558Z,51.33
2022-12-05T20:28:58.720Z,41.63
2022-12-05T20:31:35.136Z,40.95
2022-12-05T20:34:02.242Z,42.95
2022-12-05T20:36:31.653Z,51.28
2022-12-05T20:39:06.857Z,48.28
2022-12-05T20:41:34.324Z,47.10
2022-12-05T20:44:04.184Z,49.35
2022-12-05T20:46:32.312Z,48.75
2022-12-05T20:48:59.746Z,41.20
2022-12-05T20:51:31.906Z,46.08
2022-12-05T20:54:00.750Z,49.63
2022-12-05T20:56:32.895Z,41.45
2022-12-05T20:59:06.629Z,50.00
2022-12-05T21:01:35.618Z,42.47
2022-12-05T21:04:04.984Z,47.22
2022-12-05T21:06:34.201Z,48.80
2022-12-05T21:09:03.015Z,46.08
2022-12-05T21:11:32.756Z,49.22
2022-12-05T21:14:00.700Z,42.65
2022-12-05T21:16:27.969Z,43.72
2022-12-05T21:18:56.191Z,34.88
2022-12-05T21:21:26.544Z,38.30
2022-12-05T21:23:58.214Z,45.90
2022-12-05T21:26:26.964Z,45.22
2022-12-05T21:28:53.930Z,39.95
2022-12-05T21:31:34.466Z,45.20
2022-12-05T21:34:04.146Z,38.03
2022-12-05T21:36:33.085Z,45.33
2022-12-05T21:38:59.955Z,47.78
2022-12-05T21:41:27.465Z,42.70
2022-12-05T21:43:55.760Z,40.78
2022-12-05T21:46:24.481Z,40.55
2022-12-05T21:48:51.855Z,38.72
2022-12-05T21:51:20.934Z,34.25
2022-12-05T21:53:47.795Z,41.20
2022-12-05T21:56:19.437Z,33.15
2022-12-05T21:58:47.582Z,34.47
2022-12-05T22:01:24.381Z,46.47
2022-12-05T22:03:53.595Z,35.50
2022-12-05T22:06:20.572Z,35.58
2022-12-05T22:08:51.642Z,36.47
2022-12-05T22:11:23.262Z,34.72
2022-12-05T22:13:50.869Z,33.05
2022-12-05T22:16:33.238Z,36.38
2022-12-05T22:19:00.962Z,29.77
2022-12-05T22:21:28.699Z,29.90
2022-12-05T22:23:58.755Z,30.55
2022-12-05T22:26:26.819Z,31.58
2022-12-05T22:28:55.966Z,33.85
2022-12-05T22:31:23.792Z,40.13
2022-12-05T22:33:50.840Z,33.75
2022-12-05T22:36:19.249Z,39.05
2022-12-05T22:38:47.469Z,28.27
2022-12-05T22:41:20.566Z,33.80
2022-12-05T22:43:48.645Z,30.15
2022-12-05T22:46:18.971Z,32.92
2022-12-05T22:48:46.987Z,31.73
2022-12-05T22:51:14.856Z,33.05
2022-12-05T22:53:42.477Z,28.63
2022-12-05T22:56:17.674Z,33.22
2022-12-05T22:58:45.718Z,29.75
2022-12-05T23:01:18.528Z,29.60
2022-12-05T23:03:46.906Z,32.10
2022-12-05T23:06:16.425Z,27.77
2022-12-05T23:08:45.052Z,32.17
2022-12-05T23:11:12.211Z,35.05
2022-12-05T23:13:40.315Z,29.65
2022-12-05T23:16:15.592Z,29.38
2022-12-05T23:18:49.313Z,32.80
2022-12-05T23:21:18.940Z,29.73
2022-12-05T23:23:46.324Z,28.40
2022-12-05T23:26:14.230Z,35.88
2022-12-05T23:28:42.220Z,31.77
2022-12-05T23:31:11.049Z,31.80
2022-12-05T23:33:38.915Z,30.02
2022-12-05T23:36:07.322Z,34.53
2022-12-05T23:38:35.853Z,29.13
2022-12-05T23:41:09.134Z,28.15
2022-12-05T23:43:37.260Z,36.95
2022-12-05T23:46:06.096Z,26.50
2022-12-05T23:48:34.268Z,28.45
2022-12-05T23:51:02.753Z,27.98
2022-12-05T23:53:34.341Z,29.98
2022-12-05T23:56:04.199Z,31.35
2022-12-05T23:58:31.181Z,28.67
